Time;durP1;ratioP1;P1;durP2;ratioP2;P2;SDS_P1;SDS_P2;PMS_P1;PMS_P2;Temp;Humidity;BMP_temperature;BMP_pressure;BME280_temperature;BME280_humidity;BME280_pressure;Samples;Min_cycle;Max_cycle;Signal;HPM_P1;HPM_P2
2023/01/23 00:01:31;;;;;;;32.80;23.25;;;;;;;2.89;75.15;103397.72;5052562;28;20033;-72
2023/01/23 00:03:57;;;;;;;30.88;22.48;;;;;;;2.88;74.74;103402.34;5035298;28;20037;-72
2023/01/23 00:06:23;;;;;;;30.95;21.63;;;;;;;2.93;74.80;103393.69;5037697;28;20086;-72
2023/01/23 00:08:48;;;;;;;31.58;22.05;;;;;;;2.91;74.44;103396.59;5053755;28;20029;-72
2023/01/23 00:11:19;;;;;;;31.83;21.73;;;;;;;2.94;74.77;103395.44;5052716;28;20017;-72
2023/01/23 00:13:44;;;;;;;28.48;21.23;;;;;;;2.92;75.03;103389.22;5053487;28;20020;-72
2023/01/23 00:16:15;;;;;;;30.95;22.08;;;;;;;2.94;74.71;103389.94;5053678;28;20500;-72
2023/01/23 00:18:41;;;;;;;32.85;23.23;;;;;;;2.93;75.11;103390.97;5049204;28;20034;-72
2023/01/23 00:21:11;;;;;;;29.05;22.42;;;;;;;2.95;75.49;103398.06;5053831;28;20423;-72
2023/01/23 00:23:37;;;;;;;33.13;22.58;;;;;;;2.96;74.71;103396.16;5052953;28;20029;-72
2023/01/23 00:26:03;;;;;;;32.33;22.08;;;;;;;2.95;75.04;103398.06;5052491;28;20029;-72
2023/01/23 00:28:28;;;;;;;31.45;23.17;;;;;;;2.96;74.46;103398.91;5052936;28;20162;-72
2023/01/23 00:31:04;;;;;;;29.98;22.83;;;;;;;2.99;74.67;103395.00;5053237;28;20488;-72
2023/01/23 00:33:29;;;;;;;30.73;22.88;;;;;;;2.97;74.79;103403.38;5052078;28;20185;-72
2023/01/23 00:35:54;;;;;;;35.58;21.90;;;;;;;2.98;74.53;103407.00;5050487;28;20185;-72
2023/01/23 00:38:20;;;;;;;32.00;22.48;;;;;;;2.98;75.13;103413.34;5051567;28;20116;-73
2023/01/23 00:40:45;;;;;;;34.85;22.95;;;;;;;3.00;74.76;103413.22;5051960;28;20017;-72
2023/01/23 00:43:10;;;;;;;36.88;22.30;;;;;;;2.99;74.49;103415.09;5051201;28;20739;-72
2023/01/23 00:45:37;;;;;;;34.92;23.33;;;;;;;2.95;74.56;103417.25;5049479;28;20043;-72
2023/01/23 00:48:02;;;;;;;34.40;23.08;;;;;;;2.97;75.28;103422.59;5048926;28;20499;-72
2023/01/23 00:50:28;;;;;;;31.45;22.95;;;;;;;2.98;75.17;103420.72;5062402;28;20021;-72
2023/01/23 00:52:53;;;;;;;30.33;22.80;;;;;;;2.97;75.25;103419.84;5058915;28;20061;-72
2023/01/23 00:55:18;;;;;;;29.15;22.42;;;;;;;2.98;75.20;103415.22;5048189;28;20068;-72
2023/01/23 00:57:43;;;;;;;33.65;22.60;;;;;;;2.97;75.30;103414.34;5051894;28;20380;-72
2023/01/23 01:00:10;;;;;;;32.95;22.25;;;;;;;2.97;75.48;103416.25;5052762;28;20110;-72
2023/01/23 01:02:35;;;;;;;33.33;23.02;;;;;;;2.95;75.12;103406.28;5051897;28;20024;-72
2023/01/23 01:05:00;;;;;;;31.77;21.85;;;;;;;2.97;74.90;103413.50;5051870;28;20036;-72
2023/01/23 01:07:26;;;;;;;33.70;21.63;;;;;;;2.94;75.18;103400.91;5052057;28;20146;-72
2023/01/23 01:09:51;;;;;;;28.23;20.95;;;;;;;2.97;74.84;103416.25;5051684;28;20033;-72
2023/01/23 01:12:18;;;;;;;29.13;21.23;;;;;;;2.95;74.94;103419.13;5035709;28;20040;-72
2023/01/23 01:14:43;;;;;;;28.08;21.25;;;;;;;2.97;74.96;103416.25;5031849;28;20033;-72
2023/01/23 01:17:08;;;;;;;29.88;22.08;;;;;;;2.98;74.70;103415.22;5031854;28;20108;-72
2023/01/23 01:19:34;;;;;;;33.15;21.92;;;;;;;2.96;75.37;103412.63;5048778;28;20045;-72
2023/01/23 01:21:59;;;;;;;34.38;21.65;;;;;;;2.94;75.13;103407.25;5051190;28;20064;-72
2023/01/23 01:24:25;;;;;;;30.08;21.67;;;;;;;2.97;74.96;103414.34;5050298;28;20036;-72
2023/01/23 01:26:50;;;;;;;31.10;22.27;;;;;;;2.98;75.39;103417.97;5052153;28;20033;-72
2023/01/23 01:29:16;;;;;;;29.90;22.13;;;;;;;2.98;75.54;103427.06;5045475;28;20377;-72
2023/01/23 01:31:41;;;;;;;32.10;21.77;;;;;;;2.98;75.28;103417.97;5052040;28;20025;-72
2023/01/23 01:34:06;;;;;;;29.05;21.52;;;;;;;2.97;75.35;103425.34;5035475;28;20040;-72
2023/01/23 01:36:32;;;;;;;34.70;21.58;;;;;;;2.98;74.96;103427.06;5047292;28;20057;-72
2023/01/23 01:38:57;;;;;;;34.90;22.33;;;;;;;2.99;75.13;103433.41;5051359;28;20862;-72
2023/01/23 01:41:22;;;;;;;31.63;20.85;;;;;;;2.99;74.79;103428.81;5051694;28;20041;-72
2023/01/23 01:43:47;;;;;;;28.58;21.30;;;;;;;3.00;75.33;103432.44;5051499;28;20108;-72
2023/01/23 01:46:15;;;;;;;29.77;21.77;;;;;;;3.01;74.86;103428.66;5046906;28;20423;-72
2023/01/23 01:48:41;;;;;;;27.95;20.48;;;;;;;3.03;74.78;103433.03;5034911;28;20095;-72
2023/01/23 01:51:16;;;;;;;29.42;20.40;;;;;;;3.00;74.92;103427.81;5031183;28;20465;-72
2023/01/23 01:53:45;;;;;;;29.27;20.50;;;;;;;3.00;74.92;103435.16;5046956;28;20068;-72
2023/01/23 01:56:13;;;;;;;28.27;21.48;;;;;;;2.99;75.45;103430.66;5051407;28;20021;-72
2023/01/23 01:58:41;;;;;;;29.73;21.42;;;;;;;2.98;75.55;103424.31;5051231;28;20033;-72
2023/01/23 02:01:07;;;;;;;27.45;20.55;;;;;;;3.01;74.89;103428.66;5051547;28;20570;-72
2023/01/23 02:03:32;;;;;;;32.42;22.15;;;;;;;3.02;75.22;103424.91;5047712;28;20029;-72
2023/01/23 02:05:58;;;;;;;28.00;20.65;;;;;;;3.03;75.07;103421.19;5050193;28;20032;-72
2023/01/23 02:08:39;;;;;;;29.27;20.58;;;;;;;3.03;75.70;103422.03;5051448;28;20029;-72
2023/01/23 02:11:05;;;;;;;28.50;21.23;;;;;;;3.02;75.10;103419.41;5049087;28;20419;-72
2023/01/23 02:13:37;;;;;;;29.20;21.08;;;;;;;3.03;75.12;103422.03;5051287;28;20021;-72
2023/01/23 02:16:06;;;;;;;27.85;21.38;;;;;;;3.00;74.96;103422.31;5051299;28;20025;-72
2023/01/23 02:18:33;;;;;;;27.25;20.58;;;;;;;3.00;75.13;103419.56;5043388;28;20029;-72
2023/01/23 02:21:04;;;;;;;31.98;21.75;;;;;;;3.00;75.31;103422.31;5049805;28;20025;-72
2023/01/23 02:23:47;;;;;;;35.78;22.40;;;;;;;3.03;75.21;103432.16;5051243;28;20480;-72
2023/01/23 02:26:15;;;;;;;32.55;22.15;;;;;;;3.01;75.56;103424.03;5049746;28;20507;-72
2023/01/23 02:28:44;;;;;;;31.45;22.27;;;;;;;3.02;75.59;103422.16;5051141;28;20029;-72
2023/01/23 02:31:09;;;;;;;31.73;22.67;;;;;;;3.03;75.12;103424.78;5051067;28;20047;-72
2023/01/23 02:33:35;;;;;;;32.33;22.25;;;;;;;3.04;75.24;103429.25;5043129;28;20105;-72
2023/01/23 02:36:04;;;;;;;30.75;21.92;;;;;;;3.04;75.69;103423.78;5030906;28;20092;-72
2023/01/23 02:38:39;;;;;;;36.25;21.42;;;;;;;3.04;75.88;103422.91;5030864;28;20123;-72
2023/01/23 02:41:09;;;;;;;33.13;21.90;;;;;;;3.04;75.27;103426.50;5029851;28;20033;-72
2023/01/23 02:43:36;;;;;;;33.83;22.13;;;;;;;3.04;75.08;103428.41;5039215;28;20052;-73
2023/01/23 02:46:06;;;;;;;29.25;21.23;;;;;;;3.06;75.68;103416.25;5048458;28;20028;-73
2023/01/23 02:48:31;;;;;;;30.65;21.33;;;;;;;3.05;75.31;103425.50;5046534;28;20029;-72
2023/01/23 02:50:56;;;;;;;31.58;21.63;;;;;;;3.06;75.38;103419.00;5047826;28;20039;-72
2023/01/23 02:53:22;;;;;;;33.97;21.40;;;;;;;3.07;75.00;103412.53;5037740;28;20102;-72
2023/01/23 02:55:47;;;;;;;31.35;21.13;;;;;;;3.09;75.54;103409.63;5030464;28;20120;-72
2023/01/23 03:00:57;;;;;;;35.00;22.08;;;;;;;3.08;75.29;103419.72;5039466;28;20118;-72
2023/01/23 03:03:22;;;;;;;29.08;21.48;;;;;;;3.10;75.44;103431.41;5045890;28;20076;-72
2023/01/23 03:05:49;;;;;;;35.55;22.42;;;;;;;3.08;75.20;103422.47;5045947;28;20033;-72
2023/01/23 03:08:14;;;;;;;27.92;21.95;;;;;;;3.07;75.67;103417.16;5048016;28;20017;-72
2023/01/23 03:10:40;;;;;;;29.23;21.27;;;;;;;3.07;75.56;103420.75;5040053;28;20040;-72
2023/01/23 03:13:07;;;;;;;30.83;21.90;;;;;;;3.07;75.46;103434.47;5050003;28;20048;-72
2023/01/23 03:15:34;;;;;;;32.25;23.02;;;;;;;3.08;75.71;103422.47;5049577;28;20130;-72
2023/01/23 03:17:59;;;;;;;32.47;21.50;;;;;;;3.10;75.28;103423.19;5051725;28;20461;-72
2023/01/23 03:20:25;;;;;;;34.88;22.67;;;;;;;3.09;75.63;103428.84;5051544;28;20066;-72
2023/01/23 03:22:51;;;;;;;31.58;21.75;;;;;;;3.08;75.67;103433.47;5052496;28;20115;-72
2023/01/23 03:25:17;;;;;;;30.58;21.23;;;;;;;3.11;75.40;103432.31;5053392;28;20033;-72
2023/01/23 03:27:42;;;;;;;31.65;21.30;;;;;;;3.08;75.86;103421.63;5050788;28;20028;-72
2023/01/23 03:30:15;;;;;;;32.70;21.77;;;;;;;3.08;75.35;103435.34;5047584;28;20029;-72
2023/01/23 03:32:42;;;;;;;33.38;21.70;;;;;;;3.06;75.52;103429.09;5045313;28;20026;-72
2023/01/23 03:35:09;;;;;;;33.15;22.15;;;;;;;3.08;75.33;103441.69;5053491;28;20029;-72
2023/01/23 03:37:35;;;;;;;33.30;21.30;;;;;;;3.08;75.97;103438.94;5051576;28;20045;-72
2023/01/23 03:42:45;;;;;;;33.40;22.63;;;;;;;3.11;75.42;103435.06;5036109;28;20491;-72
2023/01/23 03:45:11;;;;;;;29.92;21.75;;;;;;;3.12;75.41;103434.91;5051712;28;20028;-72
2023/01/23 03:47:36;;;;;;;29.50;21.98;;;;;;;3.12;75.90;103437.66;5053354;28;20499;-72
2023/01/23 03:50:02;;;;;;;34.00;22.13;;;;;;;3.12;75.46;103432.16;5052065;28;20037;-72
2023/01/23 03:52:27;;;;;;;32.53;21.20;;;;;;;3.12;76.01;103440.41;5053122;28;20120;-72
2023/01/23 03:54:52;;;;;;;32.97;21.60;;;;;;;3.14;75.54;103437.50;5052969;28;20550;-73
2023/01/23 03:57:18;;;;;;;32.92;21.52;;;;;;;3.14;75.39;103432.91;5051564;28;20029;-72
2023/01/23 03:59:43;;;;;;;31.65;21.95;;;;;;;3.14;75.77;103437.50;5051669;28;20106;-72
2023/01/23 04:02:09;;;;;;;30.55;21.92;;;;;;;3.14;75.40;103445.72;5046125;28;20037;-72
2023/01/23 04:04:35;;;;;;;30.75;21.83;;;;;;;3.13;75.73;103441.25;5052982;28;20021;-72
2023/01/23 04:07:01;;;;;;;32.28;22.83;;;;;;;3.14;76.11;103429.28;5051423;28;20461;-72
2023/01/23 04:09:27;;;;;;;34.25;22.40;;;;;;;3.14;75.51;103432.00;5053221;28;20045;-72
2023/01/23 04:11:53;;;;;;;29.45;21.73;;;;;;;3.15;76.02;103431.88;5050693;28;20040;-72
2023/01/23 04:14:19;;;;;;;37.85;22.48;;;;;;;3.18;75.58;103433.47;5053016;28;20074;-72
2023/01/23 04:16:44;;;;;;;29.75;21.98;;;;;;;3.15;76.15;103436.50;5051248;28;20116;-72
2023/01/23 04:19:10;;;;;;;31.58;22.67;;;;;;;3.14;75.58;103427.41;5052632;28;20025;-72
2023/01/23 04:21:35;;;;;;;36.42;22.60;;;;;;;3.15;75.84;103434.63;5053590;28;20386;-72
2023/01/23 04:24:00;;;;;;;29.77;22.17;;;;;;;3.16;75.67;103439.09;5048687;28;20029;-72
2023/01/23 04:26:26;;;;;;;32.58;22.80;;;;;;;3.14;75.59;103427.41;5047019;28;20036;-72
2023/01/23 04:28:51;;;;;;;36.45;22.95;;;;;;;3.14;76.36;103432.91;5053222;28;20017;-72
2023/01/23 04:31:16;;;;;;;35.25;22.02;;;;;;;3.17;76.17;103437.22;5051748;28;20132;-72
2023/01/23 04:33:42;;;;;;;35.20;22.67;;;;;;;3.18;75.55;103447.19;5047890;28;20033;-72
2023/01/23 04:36:07;;;;;;;30.73;22.67;;;;;;;3.18;76.05;103438.94;5052170;28;20037;-72
2023/01/23 04:38:33;;;;;;;32.50;23.30;;;;;;;3.17;76.01;103445.47;5052197;28;20041;-72
2023/01/23 04:40:59;;;;;;;35.35;22.95;;;;;;;3.17;76.29;103451.81;5052402;28;20079;-72
2023/01/23 04:43:24;;;;;;;30.25;22.35;;;;;;;3.19;76.10;103448.94;5052795;28;20036;-72
2023/01/23 04:45:52;;;;;;;35.42;22.05;;;;;;;3.17;75.67;103454.56;5051953;28;20029;-72
2023/01/23 04:48:17;;;;;;;38.90;22.48;;;;;;;3.18;76.18;103447.19;5052771;28;20032;-72
2023/01/23 04:50:42;;;;;;;36.20;23.25;;;;;;;3.19;75.55;103448.94;5037492;28;20030;-72
2023/01/23 04:53:08;;;;;;;32.10;22.77;;;;;;;3.16;76.23;103449.22;5032164;28;20030;-72
2023/01/23 04:55:33;;;;;;;34.78;23.13;;;;;;;3.19;76.29;103454.44;5032195;28;20083;-72
2023/01/23 04:57:59;;;;;;;35.03;23.42;;;;;;;3.17;76.20;103451.81;5032532;28;20029;-72
2023/01/23 05:00:27;;;;;;;34.00;22.90;;;;;;;3.18;76.28;103456.31;5047085;28;20029;-73
2023/01/23 05:02:53;;;;;;;34.95;23.27;;;;;;;3.16;76.19;103455.56;5052638;28;20033;-72
2023/01/23 05:05:21;;;;;;;40.72;23.55;;;;;;;3.15;76.18;103458.47;5051703;28;20353;-72
2023/01/23 05:07:47;;;;;;;36.03;23.77;;;;;;;3.16;75.92;103463.81;5048052;28;20554;-72
2023/01/23 05:10:14;;;;;;;33.22;21.98;;;;;;;3.18;76.20;103463.66;5052264;28;20029;-72
2023/01/23 05:12:40;;;;;;;35.08;24.10;;;;;;;3.17;76.22;103457.31;5052163;28;20052;-72
2023/01/23 05:15:06;;;;;;;33.50;23.27;;;;;;;3.19;76.45;103462.66;5051178;28;20083;-71
2023/01/23 05:17:32;;;;;;;37.53;22.65;;;;;;;3.19;75.92;103465.41;5051989;28;20059;-71
2023/01/23 05:19:57;;;;;;;37.45;22.67;;;;;;;3.19;76.38;103455.31;5051573;28;20053;-72
2023/01/23 05:22:22;;;;;;;35.10;22.70;;;;;;;3.23;75.79;103460.50;5049205;28;20039;-71
2023/01/23 05:24:48;;;;;;;32.13;22.63;;;;;;;3.19;76.31;103463.53;5047816;28;20039;-72
2023/01/23 05:27:13;;;;;;;34.95;23.05;;;;;;;3.23;76.11;103469.59;5050968;28;20037;-71
2023/01/23 05:29:38;;;;;;;33.38;22.45;;;;;;;3.24;76.41;103474.09;5031085;28;20053;-72
2023/01/23 05:32:04;;;;;;;32.72;23.38;;;;;;;3.25;75.92;103473.06;5031748;28;20025;-72
2023/01/23 05:34:29;;;;;;;32.10;22.63;;;;;;;3.24;76.50;103471.34;5047163;28;20431;-72
2023/01/23 05:36:54;;;;;;;33.47;22.63;;;;;;;3.25;75.89;103470.31;5051205;28;20460;-72
2023/01/23 05:39:21;;;;;;;36.70;23.08;;;;;;;3.24;76.05;103474.09;5046922;28;20120;-72
2023/01/23 05:41:46;;;;;;;35.88;22.95;;;;;;;3.25;76.32;103470.31;5051025;28;20480;-71
2023/01/23 05:44:11;;;;;;;37.92;24.10;;;;;;;3.27;76.44;103475.69;5051348;28;20043;-72
2023/01/23 05:46:40;;;;;;;34.42;23.23;;;;;;;3.26;76.57;103468.44;5051172;28;20124;-72
2023/01/23 05:49:05;;;;;;;34.40;22.88;;;;;;;3.23;76.42;103474.25;5050666;28;20463;-72
2023/01/23 05:51:32;;;;;;;36.88;24.90;;;;;;;3.23;76.42;103479.72;5051548;28;20116;-71
2023/01/23 05:53:58;;;;;;;32.78;22.33;;;;;;;3.25;76.37;103486.78;5050826;28;20029;-72
2023/01/23 05:56:24;;;;;;;33.22;22.95;;;;;;;3.25;76.13;103480.44;5042923;28;20091;-72
2023/01/23 05:58:49;;;;;;;36.22;25.02;;;;;;;3.22;76.36;103475.22;5050892;28;20029;-71
2023/01/23 06:01:15;;;;;;;34.25;23.25;;;;;;;3.22;76.33;103480.72;5049834;28;20025;-71
2023/01/23 06:03:40;;;;;;;33.95;23.13;;;;;;;3.20;76.34;103483.59;5049475;28;20079;-71
2023/01/23 06:06:06;;;;;;;36.53;23.80;;;;;;;3.21;76.72;103499.06;5051065;28;20095;-72
2023/01/23 06:08:31;;;;;;;33.40;24.30;;;;;;;3.24;76.60;103500.66;5051080;28;20033;-71
2023/01/23 06:10:57;;;;;;;35.20;24.08;;;;;;;3.20;76.49;103495.44;5048990;28;20029;-72
2023/01/23 06:13:24;;;;;;;35.38;24.35;;;;;;;3.21;76.20;103493.56;5050351;28;20449;-71
2023/01/23 06:15:49;;;;;;;33.63;23.65;;;;;;;3.19;76.55;103496.47;5050714;28;20021;-71
2023/01/23 06:18:14;;;;;;;34.30;23.95;;;;;;;3.20;76.96;103500.06;5046686;28;20029;-70
2023/01/23 06:20:40;;;;;;;35.13;24.30;;;;;;;3.23;76.64;103501.69;5050796;28;20029;-71
2023/01/23 06:23:05;;;;;;;35.33;23.85;;;;;;;3.23;76.10;103501.69;5050842;28;20029;-71
2023/01/23 06:25:30;;;;;;;36.10;24.27;;;;;;;3.23;76.59;103505.28;5049228;28;20045;-71
2023/01/23 06:27:55;;;;;;;35.60;23.77;;;;;;;3.24;76.46;103506.16;5044471;28;20063;-71
2023/01/23 06:30:21;;;;;;;34.28;24.23;;;;;;;3.25;76.88;103506.00;5048454;28;20106;-71
2023/01/23 06:32:46;;;;;;;38.08;24.55;;;;;;;3.26;76.85;103502.25;5049251;28;20025;-71
2023/01/23 06:35:11;;;;;;;37.70;24.65;;;;;;;3.28;76.53;103507.63;5050471;28;20385;-72
2023/01/23 06:37:37;;;;;;;34.10;23.40;;;;;;;3.28;76.46;103503.00;5050412;28;20053;-72
2023/01/23 06:40:03;;;;;;;34.72;23.88;;;;;;;3.28;76.57;103502.13;5049615;28;20533;-72
2023/01/23 06:42:28;;;;;;;37.08;24.75;;;;;;;3.28;76.27;103507.63;5049787;28;20036;-72
2023/01/23 06:44:53;;;;;;;34.38;23.75;;;;;;;3.28;76.41;103507.63;5044149;28;20399;-72
2023/01/23 06:47:19;;;;;;;35.63;23.63;;;;;;;3.30;76.86;103505.56;5047707;28;20033;-72
2023/01/23 06:49:44;;;;;;;34.92;23.60;;;;;;;3.29;76.40;103501.97;5037906;28;20029;-71
2023/01/23 06:52:09;;;;;;;35.92;24.55;;;;;;;3.30;76.13;103506.47;5065058;28;20158;-72
2023/01/23 06:54:35;;;;;;;37.85;24.83;;;;;;;3.29;76.66;103509.34;5064141;28;20059;-72
2023/01/23 06:57:00;;;;;;;36.65;23.25;;;;;;;3.29;76.28;103512.09;5047626;28;20833;-72
2023/01/23 06:59:25;;;;;;;33.00;23.40;;;;;;;3.29;76.89;103509.34;5050217;28;20118;-72
2023/01/23 07:01:51;;;;;;;32.03;23.02;;;;;;;3.30;76.85;103516.56;5051407;28;20488;-72
2023/01/23 07:04:16;;;;;;;36.10;24.17;;;;;;;3.31;76.47;103523.81;5040592;28;20029;-72
2023/01/23 07:06:41;;;;;;;35.80;23.88;;;;;;;3.32;76.87;103523.66;5047615;28;20427;-72
2023/01/23 07:09:07;;;;;;;35.72;23.75;;;;;;;3.32;76.49;103520.03;5048050;28;20021;-72
2023/01/23 07:11:32;;;;;;;33.90;24.15;;;;;;;3.31;76.24;103529.31;5046941;28;20682;-72
2023/01/23 07:13:57;;;;;;;34.30;23.35;;;;;;;3.32;76.74;103526.41;5041473;28;20399;-71
2023/01/23 07:16:24;;;;;;;35.58;23.63;;;;;;;3.35;76.33;103528.00;5047179;28;20029;-72
2023/01/23 07:18:49;;;;;;;34.00;23.92;;;;;;;3.34;76.62;103534.47;5045015;28;20029;-72
2023/01/23 07:21:15;;;;;;;32.38;23.10;;;;;;;3.34;76.82;103534.47;5041775;28;20039;-67
2023/01/23 07:23:40;;;;;;;32.25;23.02;;;;;;;3.34;76.49;103532.63;5048588;28;20064;-67
2023/01/23 07:26:08;;;;;;;35.67;24.27;;;;;;;3.34;76.39;103534.47;5047475;28;20029;-67
2023/01/23 07:28:35;;;;;;;35.10;23.60;;;;;;;3.35;76.50;103539.00;5048123;28;20037;-67
2023/01/23 07:31:01;;;;;;;34.40;23.20;;;;;;;3.34;76.85;103545.47;5042756;28;20029;-68
2023/01/23 07:33:27;;;;;;;31.25;22.88;;;;;;;3.37;76.12;103550.69;5045717;28;20043;-67
2023/01/23 07:35:53;;;;;;;33.60;23.88;;;;;;;3.36;76.58;103548.97;5046867;28;20025;-69
2023/01/23 07:38:18;;;;;;;30.63;22.45;;;;;;;3.35;76.59;103550.84;5048362;28;20097;-69
2023/01/23 07:40:44;;;;;;;27.55;22.17;;;;;;;3.38;76.17;103557.91;5046919;28;20037;-68
2023/01/23 07:43:10;;;;;;;35.83;23.48;;;;;;;3.40;76.13;103556.78;5043984;28;20086;-68
2023/01/23 07:45:36;;;;;;;32.72;22.23;;;;;;;3.40;76.38;103551.28;5043631;28;20101;-69
2023/01/23 07:48:02;;;;;;;32.28;23.00;;;;;;;3.40;76.44;103558.66;5040518;28;20137;-67
2023/01/23 07:50:28;;;;;;;32.92;22.02;;;;;;;3.44;77.11;103558.22;5042886;28;20033;-65
2023/01/23 07:52:53;;;;;;;32.85;22.98;;;;;;;3.50;76.23;103567.81;5044010;28;20029;-65
2023/01/23 07:55:18;;;;;;;33.90;22.52;;;;;;;3.51;76.64;103566.78;5037831;28;20763;-69
2023/01/23 07:57:44;;;;;;;34.45;23.05;;;;;;;3.47;76.18;103568.06;5042625;28;20036;-70
2023/01/23 08:00:09;;;;;;;35.33;23.77;;;;;;;3.47;76.13;103576.31;5045982;28;20033;-72
2023/01/23 08:02:36;;;;;;;30.35;18.13;;;;;;;3.93;84.32;103572.09;5036075;28;20037;-70
2023/01/23 08:05:01;;;;;;;32.15;23.42;;;;;;;3.87;78.07;103575.38;5047597;28;20077;-68
2023/01/23 08:07:27;;;;;;;29.38;22.85;;;;;;;3.86;76.60;103573.66;5050519;28;20075;-70
2023/01/23 08:09:52;;;;;;;31.95;22.23;;;;;;;3.82;76.08;103566.72;5048797;28;20021;-69
2023/01/23 08:12:17;;;;;;;29.77;22.15;;;;;;;3.76;75.77;103575.50;5050569;28;20036;-72
2023/01/23 08:14:43;;;;;;;31.42;22.20;;;;;;;3.72;75.59;103576.81;5047183;28;20033;-70
2023/01/23 08:17:08;;;;;;;32.47;22.80;;;;;;;3.70;75.89;103576.97;5052306;28;20068;-69
2023/01/23 08:19:33;;;;;;;33.58;23.42;;;;;;;3.67;75.75;103582.72;5052209;28;20037;-70
2023/01/23 08:21:59;;;;;;;29.25;21.92;;;;;;;3.66;75.94;103583.75;5044624;28;20029;-69
2023/01/23 08:24:24;;;;;;;31.17;22.35;;;;;;;3.64;76.09;103583.88;5048987;28;20037;-70
2023/01/23 08:26:49;;;;;;;31.20;21.83;;;;;;;3.61;75.46;103581.38;5051335;28;20071;-71
2023/01/23 08:29:14;;;;;;;30.83;22.20;;;;;;;3.62;75.97;103582.28;5050531;28;20930;-72
2023/01/23 08:31:40;;;;;;;33.72;22.00;;;;;;;3.59;76.12;103577.06;5049013;28;20039;-69
2023/01/23 08:34:05;;;;;;;29.98;21.23;;;;;;;3.61;75.89;103581.38;5048337;28;20029;-70
2023/01/23 08:36:31;;;;;;;29.05;21.83;;;;;;;3.61;76.14;103592.38;5051180;28;20024;-69
2023/01/23 08:38:56;;;;;;;28.08;21.38;;;;;;;3.62;75.96;103596.03;5048056;28;20051;-71
2023/01/23 08:41:22;;;;;;;30.05;22.00;;;;;;;3.62;76.27;103607.88;5047052;28;20029;-71
2023/01/23 08:43:48;;;;;;;28.73;21.45;;;;;;;3.63;75.75;103601.38;5044191;28;20096;-68
2023/01/23 08:46:13;;;;;;;29.52;22.60;;;;;;;3.62;76.06;103591.41;5049244;28;20044;-67
2023/01/23 08:48:40;;;;;;;30.65;22.80;;;;;;;3.65;75.89;103602.06;5048554;28;20037;-69
2023/01/23 08:51:08;;;;;;;27.33;21.60;;;;;;;3.65;75.97;103604.81;5044620;28;20104;-72
2023/01/23 08:53:34;;;;;;;28.45;21.70;;;;;;;3.65;75.84;103602.06;5039805;28;20554;-71
2023/01/23 08:56:02;;;;;;;31.13;21.63;;;;;;;3.63;75.71;103606.00;5047095;28;20037;-68
2023/01/23 08:58:28;;;;;;;31.13;22.38;;;;;;;3.66;76.06;103600.22;5046242;28;20029;-69
2023/01/23 09:00:53;;;;;;;31.70;21.85;;;;;;;3.65;76.04;103604.81;5045869;28;20033;-68
2023/01/23 09:03:18;;;;;;;31.35;22.05;;;;;;;3.68;75.89;103600.94;5046981;28;20434;-66
2023/01/23 09:05:44;;;;;;;30.23;22.15;;;;;;;3.66;75.94;103601.09;5046587;28;20045;-67
2023/01/23 09:08:09;;;;;;;30.13;21.33;;;;;;;3.66;75.62;103598.34;5042527;28;20029;-70
2023/01/23 09:10:35;;;;;;;29.73;22.20;;;;;;;3.66;75.92;103603.84;5045025;28;20037;-69
2023/01/23 09:13:00;;;;;;;35.78;23.35;;;;;;;3.62;76.00;103605.13;5046014;28;20048;-68
2023/01/23 09:15:26;;;;;;;32.55;23.13;;;;;;;3.62;76.25;103610.63;5047863;28;20496;-62
2023/01/23 09:17:52;;;;;;;29.08;22.42;;;;;;;3.66;76.00;103624.94;5049191;28;20024;-63
2023/01/23 09:20:17;;;;;;;33.42;23.73;;;;;;;3.68;75.79;103614.66;5043517;28;20361;-64
2023/01/23 09:22:43;;;;;;;31.83;21.65;;;;;;;3.67;75.87;103611.06;5047549;28;20129;-61
2023/01/23 09:25:09;;;;;;;28.58;22.48;;;;;;;3.81;77.12;103609.81;5042203;28;20032;-63
2023/01/23 09:27:34;;;;;;;29.48;22.98;;;;;;;3.85;75.54;103596.63;5047277;28;20024;-62
2023/01/23 09:29:59;;;;;;;30.00;22.90;;;;;;;3.81;75.92;103601.56;5047503;28;20037;-61
2023/01/23 09:32:25;;;;;;;31.23;21.83;;;;;;;3.80;75.65;103602.56;5043987;28;20041;-63
2023/01/23 09:34:50;;;;;;;25.95;21.45;;;;;;;3.81;75.67;103597.94;5048268;28;20036;-63
2023/01/23 09:37:16;;;;;;;29.00;22.38;;;;;;;3.83;75.80;103593.16;5046232;28;20164;-63
2023/01/23 09:39:42;;;;;;;27.63;21.83;;;;;;;3.81;75.91;103597.94;5044604;28;20455;-64
2023/01/23 09:42:32;;;;;;;32.97;21.77;;;;;;;3.86;75.52;103599.25;5033792;28;20694;-62
2023/01/23 09:45:04;;;;;;;29.73;20.92;;;;;;;3.84;75.79;103603.16;5036949;28;20052;-61
2023/01/23 09:47:42;;;;;;;31.35;22.75;;;;;;;3.83;75.42;103607.78;5042708;28;20095;-65
2023/01/23 09:50:21;;;;;;;29.85;21.55;;;;;;;3.84;75.83;103612.25;5044035;28;20035;-65
2023/01/23 09:52:54;;;;;;;29.23;21.73;;;;;;;3.84;75.68;103614.13;5047944;28;20033;-64
2023/01/23 09:55:43;;;;;;;28.77;21.67;;;;;;;3.87;75.95;103620.22;5045554;28;20110;-64
2023/01/23 09:58:37;;;;;;;27.95;20.83;;;;;;;3.89;75.80;103631.06;5045481;28;20025;-67
2023/01/23 10:01:02;;;;;;;29.58;21.63;;;;;;;3.86;75.58;103634.09;4965029;28;20088;-66
2023/01/23 10:03:30;;;;;;;32.03;22.30;;;;;;;3.87;75.95;103635.84;5041045;28;20036;-66
2023/01/23 10:06:12;;;;;;;30.75;22.50;;;;;;;3.90;75.76;103625.44;5047511;28;20060;-67
2023/01/23 10:09:05;;;;;;;29.65;21.23;;;;;;;3.91;75.58;103629.06;5038263;28;20052;-65
2023/01/23 10:11:53;;;;;;;29.67;21.90;;;;;;;3.92;75.61;103628.91;5045524;28;20032;-65
2023/01/23 10:14:29;;;;;;;32.53;22.70;;;;;;;3.93;75.71;103622.41;5050177;28;20033;-66
2023/01/23 10:17:19;;;;;;;30.38;20.80;;;;;;;3.96;75.75;103620.38;5047688;28;20040;-66
2023/01/23 10:20:17;;;;;;;30.25;20.90;;;;;;;3.98;75.31;103627.47;5038165;28;20530;-66
2023/01/23 10:22:48;;;;;;;27.63;20.38;;;;;;;3.98;75.57;103626.63;5046535;28;20322;-65
2023/01/23 10:25:21;;;;;;;27.98;20.35;;;;;;;3.99;75.69;103633.84;5045148;28;20768;-66
2023/01/23 10:27:48;;;;;;;28.83;20.15;;;;;;;3.98;75.59;103637.59;5041640;28;20045;-65
2023/01/23 10:30:25;;;;;;;28.38;20.90;;;;;;;3.97;75.41;103635.84;5048121;28;20375;-65
2023/01/23 10:33:08;;;;;;;28.85;21.83;;;;;;;3.93;74.85;103633.41;5041456;28;20582;-66
2023/01/23 10:35:43;;;;;;;31.13;21.10;;;;;;;3.93;75.53;103633.41;5046790;28;20041;-67
2023/01/23 10:38:21;;;;;;;28.20;21.00;;;;;;;3.94;75.11;103617.78;5048853;28;20508;-67
2023/01/23 10:43:31;;;;;;;27.27;20.30;;;;;;;3.96;75.29;103623.13;5048107;28;20036;-67
2023/01/23 10:45:56;;;;;;;27.85;20.58;;;;;;;3.96;75.48;103629.47;5040962;28;20040;-67
2023/01/23 10:48:39;;;;;;;30.20;20.52;;;;;;;4.04;75.53;103621.41;5042325;28;20029;-67
2023/01/23 10:51:25;;;;;;;30.58;20.58;;;;;;;4.05;75.45;103620.41;5039025;28;20028;-67
2023/01/23 10:54:13;;;;;;;30.45;20.50;;;;;;;4.05;75.30;103620.41;5046165;28;20105;-68
2023/01/23 10:56:48;;;;;;;24.55;19.73;;;;;;;4.05;75.43;103623.16;5048589;28;20556;-67
2023/01/23 10:59:21;;;;;;;30.83;21.35;;;;;;;4.06;75.09;103618.53;5035320;28;20153;-67
2023/01/23 11:02:03;;;;;;;27.77;20.23;;;;;;;4.07;74.87;103615.63;5040031;28;20033;-67
2023/01/23 11:04:33;;;;;;;27.10;20.60;;;;;;;4.06;74.93;103624.03;5044063;28;20028;-69
2023/01/23 11:07:04;;;;;;;27.85;20.75;;;;;;;4.06;74.99;103624.88;5042911;28;20033;-67
2023/01/23 11:09:30;;;;;;;29.85;21.73;;;;;;;4.08;74.69;103622.00;5037374;28;20128;-65
2023/01/23 11:12:05;;;;;;;29.63;20.58;;;;;;;4.09;75.22;103621.88;5042520;28;20178;-65
2023/01/23 11:14:32;;;;;;;29.98;21.67;;;;;;;4.09;74.78;103619.13;5042100;28;20445;-65
2023/01/23 11:17:00;;;;;;;26.90;19.95;;;;;;;4.09;74.87;103615.50;5043544;28;20043;-65
2023/01/23 11:19:30;;;;;;;28.90;21.08;;;;;;;4.08;75.11;103611.84;5039564;28;20063;-66
2023/01/23 11:21:58;;;;;;;27.35;19.95;;;;;;;4.09;74.78;103610.88;5043856;28;20025;-66
2023/01/23 11:24:23;;;;;;;29.17;20.73;;;;;;;4.10;74.77;103619.97;5041822;28;20033;-68
2023/01/23 11:27:04;;;;;;;26.42;19.70;;;;;;;4.11;74.95;103619.81;5046304;28;20048;-69